Time;durP1;ratioP1;P1;durP2;ratioP2;P2;SDS_P1;SDS_P2;PMS_P1;PMS_P2;Temp;Humidity;BMP_temperature;BMP_pressure;BME280_temperature;BME280_humidity;BME280_pressure;Samples;Min_cycle;Max_cycle;Signal;HPM_P1;HPM_P2
2021/10/25 00:01:18;;;;;;;9.55;3.08;;;13.90;79.50;;;;;;4863610;29;20026;-77
2021/10/25 00:03:44;;;;;;;4.72;2.60;;;13.90;79.60;;;;;;4879149;29;20029;-76
2021/10/25 00:06:10;;;;;;;7.65;2.65;;;13.90;79.60;;;;;;4863575;29;20100;-77
2021/10/25 00:08:35;;;;;;;6.28;2.72;;;13.90;79.60;;;;;;4877493;29;20634;-76
2021/10/25 00:11:01;;;;;;;9.02;3.00;;;13.90;79.60;;;;;;4877683;29;20053;-76
2021/10/25 00:13:26;;;;;;;8.38;2.80;;;13.90;79.70;;;;;;4863344;29;20057;-77
2021/10/25 00:15:52;;;;;;;9.50;2.72;;;13.90;79.70;;;;;;4877576;29;20060;-76
2021/10/25 00:18:17;;;;;;;7.18;2.53;;;13.90;79.70;;;;;;4877663;29;20085;-80
2021/10/25 00:20:43;;;;;;;5.45;2.78;;;13.90;79.70;;;;;;4877366;29;20026;-77
2021/10/25 00:23:08;;;;;;;5.13;2.42;;;13.90;79.70;;;;;;4877454;29;20396;-76
2021/10/25 00:25:34;;;;;;;8.35;2.60;;;13.90;79.70;;;;;;4863032;29;20384;-77
2021/10/25 00:28:00;;;;;;;6.82;2.92;;;13.80;79.60;;;;;;4877325;29;20380;-76
2021/10/25 00:30:25;;;;;;;6.82;2.40;;;13.90;79.70;;;;;;4877082;29;20445;-76
2021/10/25 00:32:51;;;;;;;5.97;2.45;;;13.90;79.80;;;;;;4877426;29;20562;-76
2021/10/25 00:35:17;;;;;;;6.32;2.55;;;13.80;79.70;;;;;;4877364;29;20033;-77
2021/10/25 00:37:43;;;;;;;5.00;2.45;;;13.90;79.80;;;;;;4862971;29;20065;-77
2021/10/25 00:40:09;;;;;;;6.18;2.97;;;13.90;79.70;;;;;;4862724;29;20104;-76
2021/10/25 00:42:34;;;;;;;7.43;2.83;;;13.90;79.70;;;;;;4877096;29;20033;-76
2021/10/25 00:45:00;;;;;;;6.95;2.67;;;13.90;79.80;;;;;;4877038;29;20025;-77
2021/10/25 00:47:26;;;;;;;8.82;2.95;;;13.90;79.80;;;;;;4862782;29;20089;-77
2021/10/25 00:49:52;;;;;;;8.98;2.70;;;13.90;79.80;;;;;;4876977;29;20516;-77
2021/10/25 00:52:19;;;;;;;9.68;2.97;;;13.90;79.80;;;;;;4862827;29;20033;-76
2021/10/25 00:54:45;;;;;;;12.57;3.00;;;13.90;79.80;;;;;;4876872;29;20045;-77
2021/10/25 00:57:12;;;;;;;6.55;2.80;;;13.90;79.80;;;;;;4862733;29;20419;-77
2021/10/25 00:59:38;;;;;;;7.43;2.65;;;13.90;79.80;;;;;;4876614;29;20039;-76
2021/10/25 01:02:04;;;;;;;9.27;2.78;;;13.90;79.80;;;;;;4862611;29;20036;-76
2021/10/25 01:04:31;;;;;;;8.43;3.08;;;13.90;79.80;;;;;;4862462;29;20556;-76
2021/10/25 01:06:58;;;;;;;6.43;2.70;;;13.90;79.90;;;;;;4876375;29;20571;-78
2021/10/25 01:09:24;;;;;;;6.82;2.67;;;13.90;79.90;;;;;;4861107;29;20488;-78
2021/10/25 01:11:50;;;;;;;9.82;3.28;;;13.90;79.90;;;;;;4876303;29;20061;-78
2021/10/25 01:14:16;;;;;;;7.43;2.50;;;13.90;79.80;;;;;;4861995;29;20029;-78
2021/10/25 01:16:42;;;;;;;8.90;3.08;;;13.90;79.90;;;;;;4860859;29;20029;-78
2021/10/25 01:19:08;;;;;;;12.63;3.28;;;13.90;79.90;;;;;;4861731;29;20041;-79
2021/10/25 01:21:33;;;;;;;7.28;2.60;;;13.90;79.80;;;;;;4876189;29;20040;-77
2021/10/25 01:23:59;;;;;;;9.05;3.00;;;13.90;79.70;;;;;;4876458;29;20036;-78
2021/10/25 01:26:25;;;;;;;9.70;3.03;;;13.90;79.80;;;;;;4876210;29;20076;-77
2021/10/25 01:28:53;;;;;;;7.07;2.70;;;13.90;79.70;;;;;;4875966;29;20483;-78
2021/10/25 01:31:20;;;;;;;7.95;3.33;;;13.90;79.70;;;;;;4876219;29;20033;-79
2021/10/25 01:33:47;;;;;;;6.20;3.00;;;14.00;79.70;;;;;;4876157;29;20040;-77
2021/10/25 01:36:13;;;;;;;7.10;2.70;;;14.00;79.60;;;;;;4876032;29;20128;-77
2021/10/25 01:38:40;;;;;;;6.10;2.78;;;14.00;79.70;;;;;;4861133;29;20069;-79
2021/10/25 01:41:06;;;;;;;7.93;2.70;;;14.00;79.60;;;;;;4861555;29;20416;-78
2021/10/25 01:43:32;;;;;;;7.20;2.90;;;14.00;79.60;;;;;;4875835;29;20149;-78
2021/10/25 01:45:58;;;;;;;7.75;2.67;;;14.00;79.50;;;;;;4861370;29;20025;-77
2021/10/25 01:48:23;;;;;;;7.18;2.65;;;14.00;79.50;;;;;;4861388;29;20030;-79
2021/10/25 01:50:49;;;;;;;9.45;2.72;;;14.00;79.50;;;;;;4875570;29;20433;-77
2021/10/25 01:53:15;;;;;;;8.35;3.08;;;14.00;79.60;;;;;;4875527;29;20033;-78
2021/10/25 01:55:40;;;;;;;8.20;2.80;;;14.00;79.60;;;;;;4861245;29;20384;-77
2021/10/25 01:58:06;;;;;;;6.40;2.72;;;14.00;79.70;;;;;;4875507;29;20033;-78
2021/10/25 02:00:32;;;;;;;5.70;2.45;;;14.00;79.70;;;;;;4861210;29;20057;-77
2021/10/25 02:02:58;;;;;;;6.05;2.83;;;14.00;79.70;;;;;;4875525;29;20029;-76
2021/10/25 02:05:23;;;;;;;6.57;2.60;;;14.00;79.70;;;;;;4861324;29;20036;-77
2021/10/25 02:07:49;;;;;;;7.43;3.10;;;14.00;79.80;;;;;;4861249;29;20021;-79
2021/10/25 02:10:15;;;;;;;7.15;2.90;;;13.90;80.00;;;;;;4875423;29;20369;-76
2021/10/25 02:12:40;;;;;;;7.38;3.05;;;13.90;80.10;;;;;;4875525;29;20033;-79
2021/10/25 02:15:07;;;;;;;7.35;3.00;;;13.90;80.20;;;;;;4875664;29;20095;-76
2021/10/25 02:17:32;;;;;;;6.82;2.78;;;13.80;80.20;;;;;;4875409;29;20037;-77
2021/10/25 02:19:58;;;;;;;7.00;2.95;;;13.80;80.30;;;;;;4875093;29;20033;-78
2021/10/25 02:22:23;;;;;;;6.15;2.88;;;13.80;80.30;;;;;;4875173;29;20093;-78
2021/10/25 02:24:50;;;;;;;7.20;3.00;;;13.80;80.40;;;;;;4875337;29;20022;-77
2021/10/25 02:27:16;;;;;;;7.05;3.17;;;13.80;80.40;;;;;;4875264;29;20033;-77
2021/10/25 02:29:41;;;;;;;5.72;3.00;;;13.80;80.40;;;;;;4860843;29;20029;-76
2021/10/25 02:32:07;;;;;;;5.20;2.78;;;13.80;80.40;;;;;;4860804;29;20108;-77
2021/10/25 02:34:34;;;;;;;6.47;3.00;;;13.80;80.40;;;;;;4859570;29;20116;-76
2021/10/25 02:37:00;;;;;;;6.97;3.13;;;13.80;80.50;;;;;;4860587;29;20029;-76
2021/10/25 02:39:28;;;;;;;6.47;2.88;;;13.80;80.40;;;;;;4860651;29;20380;-78
2021/10/25 02:41:54;;;;;;;6.25;2.90;;;13.80;80.50;;;;;;4859679;29;20025;-77
2021/10/25 02:44:20;;;;;;;7.90;3.10;;;13.80;80.40;;;;;;4860917;29;20032;-76
2021/10/25 02:46:46;;;;;;;6.85;3.33;;;13.80;80.40;;;;;;4859660;29;20116;-76
2021/10/25 02:49:11;;;;;;;6.82;3.00;;;13.80;80.30;;;;;;4859376;29;20030;-77
2021/10/25 02:51:37;;;;;;;7.72;3.20;;;13.80;80.40;;;;;;4874967;29;20034;-78
2021/10/25 02:54:02;;;;;;;5.80;3.05;;;13.80;80.30;;;;;;4859659;29;20044;-77
2021/10/25 02:56:28;;;;;;;7.05;2.90;;;13.80;80.80;;;;;;4860846;29;20025;-77
2021/10/25 02:58:55;;;;;;;8.65;3.22;;;13.80;80.30;;;;;;4859572;29;20025;-77
2021/10/25 03:01:21;;;;;;;8.02;3.10;;;13.80;80.30;;;;;;4859312;29;20025;-75
2021/10/25 03:03:46;;;;;;;6.97;3.05;;;13.80;80.30;;;;;;4860687;29;20037;-77
2021/10/25 03:06:12;;;;;;;6.20;3.00;;;13.80;80.20;;;;;;4859349;29;20506;-77
2021/10/25 03:08:38;;;;;;;7.15;2.90;;;13.80;80.20;;;;;;4874832;29;20394;-77
2021/10/25 03:11:03;;;;;;;7.82;3.35;;;13.80;80.20;;;;;;4875225;29;20029;-76
2021/10/25 03:13:29;;;;;;;8.98;3.33;;;13.80;80.20;;;;;;4860518;29;20036;-76
2021/10/25 03:15:54;;;;;;;6.15;3.00;;;13.80;80.20;;;;;;4859484;29;20034;-76
2021/10/25 03:18:24;;;;;;;6.55;2.90;;;13.80;80.10;;;;;;4859382;29;20090;-78
2021/10/25 03:20:50;;;;;;;7.97;3.25;;;13.80;80.00;;;;;;4859263;29;20029;-76
2021/10/25 03:23:15;;;;;;;7.82;3.10;;;13.80;79.90;;;;;;4859392;29;20026;-76
2021/10/25 03:25:41;;;;;;;7.55;3.33;;;13.80;79.90;;;;;;4874794;29;20026;-76
2021/10/25 03:28:08;;;;;;;6.75;3.00;;;13.80;79.80;;;;;;4859427;29;20030;-77
2021/10/25 03:30:34;;;;;;;7.55;3.25;;;13.80;79.80;;;;;;4860328;29;20096;-76
2021/10/25 03:33:00;;;;;;;10.18;3.50;;;13.80;79.80;;;;;;4861135;29;20036;-77
2021/10/25 03:35:26;;;;;;;8.05;3.20;;;13.80;79.80;;;;;;4864097;29;20061;-76
2021/10/25 03:37:54;;;;;;;8.40;3.22;;;13.80;79.80;;;;;;4863010;29;20029;-77
2021/10/25 03:40:19;;;;;;;9.48;3.47;;;13.80;79.80;;;;;;4863780;29;20487;-78
2021/10/25 03:42:48;;;;;;;6.60;3.38;;;13.80;79.80;;;;;;4862913;29;20033;-76
2021/10/25 03:45:23;;;;;;;9.10;3.30;;;13.80;79.70;;;;;;4862807;29;20519;-77
2021/10/25 03:47:55;;;;;;;8.18;3.38;;;13.80;79.70;;;;;;4864023;29;20028;-77
2021/10/25 03:50:23;;;;;;;6.28;2.75;;;13.80;79.70;;;;;;4878107;29;20037;-76
2021/10/25 03:55:31;;;;;;;7.30;3.15;;;13.80;79.60;;;;;;4864070;29;20491;-76
2021/10/25 04:30:10;;;;;;;5.45;3.05;;;13.80;79.60;;;;;;4862884;29;20029;-76
2021/10/25 04:32:36;;;;;;;6.15;3.13;;;13.80;79.60;;;;;;4861641;29;20025;-77
2021/10/25 04:35:02;;;;;;;6.63;3.20;;;13.80;79.50;;;;;;4866926;29;20527;-77
2021/10/25 04:37:28;;;;;;;5.90;2.85;;;13.90;79.50;;;;;;4874813;29;20047;-76
2021/10/25 04:39:53;;;;;;;5.90;2.78;;;13.80;79.50;;;;;;4881116;29;20483;-77
2021/10/25 04:42:20;;;;;;;7.65;3.30;;;13.80;79.40;;;;;;4880168;29;20036;-77
2021/10/25 04:44:47;;;;;;;7.50;3.53;;;13.90;79.40;;;;;;4866584;29;20022;-77
2021/10/25 04:47:13;;;;;;;6.95;3.22;;;13.80;79.40;;;;;;4882460;29;20056;-78
2021/10/25 04:49:39;;;;;;;5.22;2.72;;;13.90;79.40;;;;;;4875861;29;20033;-78
2021/10/25 04:52:05;;;;;;;6.70;3.28;;;13.90;79.30;;;;;;4876189;29;20037;-79
2021/10/25 04:54:31;;;;;;;8.38;3.10;;;13.90;79.30;;;;;;4875750;29;20037;-79
2021/10/25 04:56:57;;;;;;;6.22;2.85;;;13.90;79.30;;;;;;4876187;29;20437;-78
2021/10/25 04:59:23;;;;;;;7.85;3.47;;;13.90;79.30;;;;;;4875925;29;20525;-80
2021/10/25 05:01:49;;;;;;;8.30;3.33;;;13.90;79.20;;;;;;4876122;29;20120;-78
2021/10/25 05:04:15;;;;;;;12.02;3.50;;;13.90;79.20;;;;;;4875869;29;20534;-78
2021/10/25 05:06:40;;;;;;;12.13;3.55;;;13.90;79.10;;;;;;4878144;29;20082;-79
2021/10/25 05:09:06;;;;;;;9.80;3.55;;;13.80;79.00;;;;;;4875600;29;20044;-77
2021/10/25 05:11:31;;;;;;;8.98;3.75;;;13.80;79.10;;;;;;4876281;29;20037;-76
2021/10/25 05:13:57;;;;;;;8.63;3.10;;;13.80;79.30;;;;;;4875638;29;20494;-80
2021/10/25 05:16:23;;;;;;;7.72;2.75;;;13.70;79.30;;;;;;4875059;29;20040;-78
2021/10/25 05:18:49;;;;;;;10.23;3.22;;;13.80;79.40;;;;;;4875985;29;20467;-80
2021/10/25 05:21:14;;;;;;;9.30;3.10;;;13.70;79.30;;;;;;4876047;29;20037;-78
2021/10/25 05:23:40;;;;;;;8.80;3.47;;;13.70;79.30;;;;;;4876771;29;20024;-78
2021/10/25 05:26:06;;;;;;;13.98;3.63;;;13.70;79.40;;;;;;4876799;29;20053;-78
2021/10/25 05:28:31;;;;;;;12.32;3.45;;;13.70;79.50;;;;;;4876430;29;20502;-77
2021/10/25 05:30:57;;;;;;;17.77;4.13;;;13.70;79.20;;;;;;4874892;29;20061;-79
2021/10/25 05:33:22;;;;;;;13.07;3.67;;;13.70;79.20;;;;;;4876304;29;20029;-78
2021/10/25 05:35:48;;;;;;;11.43;3.33;;;13.70;79.00;;;;;;4875793;29;20435;-77
2021/10/25 05:38:14;;;;;;;13.00;3.38;;;13.70;78.90;;;;;;4878000;29;20037;-80
2021/10/25 05:40:40;;;;;;;20.02;4.20;;;13.70;78.90;;;;;;4875968;29;20081;-80
2021/10/25 05:43:07;;;;;;;15.20;3.92;;;13.70;77.80;;;;;;4873636;29;20039;-81
2021/10/25 05:45:33;;;;;;;14.50;4.35;;;13.60;75.20;;;;;;4872452;29;20116;-76
2021/10/25 05:47:58;;;;;;;14.73;3.60;;;13.60;75.30;;;;;;4873882;29;20108;-78
2021/10/25 05:50:24;;;;;;;17.30;3.85;;;13.60;76.00;;;;;;4871831;29;20025;-79
2021/10/25 05:52:49;;;;;;;20.23;5.00;;;13.60;76.30;;;;;;4872721;29;20089;-79
2021/10/25 05:55:21;;;;;;;20.15;4.85;;;13.70;76.80;;;;;;4872351;29;20334;-78
2021/10/25 05:57:48;;;;;;;12.05;3.80;;;13.70;77.10;;;;;;4872331;29;20481;-79
2021/10/25 06:00:14;;;;;;;13.10;3.63;;;13.70;77.40;;;;;;4872419;29;20119;-78
2021/10/25 06:02:42;;;;;;;10.68;3.85;;;13.70;77.50;;;;;;4873747;29;20040;-77
2021/10/25 06:05:08;;;;;;;8.50;3.28;;;13.70;77.60;;;;;;4873442;29;20021;-78
2021/10/25 06:07:33;;;;;;;8.63;3.40;;;13.70;77.80;;;;;;4872765;29;20506;-78
2021/10/25 06:10:00;;;;;;;10.98;3.30;;;13.70;77.90;;;;;;4873294;29;20048;-81
2021/10/25 06:12:26;;;;;;;10.32;3.53;;;13.70;78.00;;;;;;4872263;29;20036;-78
2021/10/25 06:14:54;;;;;;;10.50;3.33;;;13.70;78.00;;;;;;4873671;29;20098;-77
2021/10/25 06:19:49;;;;;;;7.47;3.03;;;13.70;78.10;;;;;;4873369;29;20433;-78
2021/10/25 06:22:18;;;;;;;8.38;3.42;;;13.70;78.20;;;;;;4887497;29;20041;-78
2021/10/25 06:24:47;;;;;;;8.93;3.28;;;13.70;78.10;;;;;;4873241;29;20045;-79
2021/10/25 06:27:13;;;;;;;8.60;3.42;;;13.70;78.10;;;;;;4872135;29;20503;-78
2021/10/25 06:29:39;;;;;;;8.02;3.40;;;13.70;78.10;;;;;;4871820;29;20033;-81
2021/10/25 06:32:05;;;;;;;9.48;3.08;;;13.70;78.10;;;;;;4873407;29;20491;-79
2021/10/25 06:34:39;;;;;;;8.40;3.45;;;13.80;78.10;;;;;;4871727;29;20101;-79
2021/10/25 06:37:05;;;;;;;6.80;3.08;;;13.80;78.10;;;;;;4871931;29;20025;-78
2021/10/25 06:39:43;;;;;;;7.05;3.08;;;13.80;78.20;;;;;;4872748;29;20406;-78
2021/10/25 06:42:09;;;;;;;7.40;3.38;;;13.70;78.30;;;;;;4872057;29;20116;-79
2021/10/25 06:47:18;;;;;;;7.22;3.17;;;13.80;78.40;;;;;;4873073;29;20033;-78
2021/10/25 06:49:43;;;;;;;7.57;3.20;;;13.80;78.50;;;;;;4871458;29;20032;-78
2021/10/25 06:52:09;;;;;;;8.15;3.30;;;13.80;78.50;;;;;;4873022;29;20406;-79
2021/10/25 06:54:34;;;;;;;6.93;3.00;;;13.80;78.50;;;;;;4871786;29;20131;-78
2021/10/25 06:57:00;;;;;;;5.75;3.30;;;13.80;78.40;;;;;;4872900;29;20120;-78
2021/10/25 06:59:25;;;;;;;6.43;3.30;;;13.80;78.40;;;;;;4872677;29;20434;-77
2021/10/25 07:01:51;;;;;;;7.72;3.10;;;13.80;78.40;;;;;;4872491;29;20041;-80
2021/10/25 07:04:17;;;;;;;5.75;3.00;;;13.80;78.40;;;;;;4872954;29;20036;-77
2021/10/25 07:06:42;;;;;;;6.13;3.35;;;13.80;78.40;;;;;;4871070;29;20078;-76
2021/10/25 07:09:09;;;;;;;6.93;3.17;;;13.80;78.40;;;;;;4870973;29;20045;-79
2021/10/25 07:11:35;;;;;;;6.88;3.20;;;13.80;78.50;;;;;;4872765;29;20067;-80
2021/10/25 07:14:01;;;;;;;5.90;3.00;;;13.80;78.50;;;;;;4872739;29;20487;-78
2021/10/25 07:17:15;;;;;;;6.22;2.80;;;13.80;78.50;;;;;;4871260;29;20140;-77
2021/10/25 07:19:31;;;;;;;6.05;3.15;;;13.90;78.40;;;;;;4869425;29;20407;-77
2021/10/25 07:27:49;;;;;;;6.85;3.10;;;13.90;77.70;;;;;;4872869;29;20044;-78
2021/10/25 08:05:39;;;;;;;5.25;2.70;;;14.50;76.40;;;;;;4872688;29;20036;-79
2021/10/25 08:11:32;;;;;;;5.10;2.90;;;14.50;76.10;;;;;;4861330;29;20423;-78
2021/10/25 08:13:45;;;;;;;7.53;3.10;;;14.60;76.10;;;;;;4870997;29;20060;-78
2021/10/25 08:16:21;;;;;;;7.03;2.90;;;14.60;76.20;;;;;;4870931;29;20120;-78
2021/10/25 08:21:20;;;;;;;5.43;3.03;;;14.60;76.10;;;;;;4875700;29;20032;-77
2021/10/25 08:23:48;;;;;;;5.75;2.97;;;14.60;76.00;;;;;;4874207;29;20119;-79
2021/10/25 08:26:13;;;;;;;6.45;3.00;;;14.70;76.00;;;;;;4874369;29;20029;-79
2021/10/25 08:28:39;;;;;;;5.15;2.92;;;14.70;75.90;;;;;;4875032;29;20483;-78
2021/10/25 08:31:08;;;;;;;5.88;2.80;;;14.70;75.80;;;;;;4874189;29;20028;-80
2021/10/25 08:36:22;;;;;;;5.70;2.97;;;14.70;75.80;;;;;;4875742;29;20060;-80
2021/10/25 08:41:33;;;;;;;5.50;3.15;;;14.70;75.70;;;;;;4875399;29;20348;-78
2021/10/25 08:44:00;;;;;;;4.88;2.72;;;14.70;75.70;;;;;;4874566;29;20036;-79
2021/10/25 08:46:28;;;;;;;5.45;2.90;;;14.80;75.70;;;;;;4875426;29;20032;-78
2021/10/25 08:48:55;;;;;;;6.13;3.22;;;14.80;75.60;;;;;;4875016;29;20452;-79
2021/10/25 08:51:21;;;;;;;5.15;3.10;;;14.80;75.50;;;;;;4875010;29;20029;-78
2021/10/25 08:53:48;;;;;;;6.07;3.13;;;14.80;75.40;;;;;;4875250;29;20295;-79
2021/10/25 08:56:17;;;;;;;6.35;3.10;;;14.90;75.80;;;;;;4874094;29;20115;-79
2021/10/25 08:58:50;;;;;;;5.30;3.00;;;14.90;75.20;;;;;;4875045;29;20319;-79
2021/10/25 09:01:27;;;;;;;5.45;3.20;;;14.90;75.10;;;;;;4875344;29;20041;-79
2021/10/25 09:04:04;;;;;;;5.32;2.97;;;15.00;75.10;;;;;;4873498;29;20033;-79
2021/10/25 09:06:30;;;;;;;5.95;3.00;;;15.00;75.00;;;;;;4874107;29;20024;-82
2021/10/25 09:09:05;;;;;;;5.15;2.80;;;15.00;75.00;;;;;;4873682;29;20060;-79
2021/10/25 09:11:31;;;;;;;5.70;2.90;;;15.00;75.00;;;;;;4873873;29;20545;-77
2021/10/25 09:13:57;;;;;;;5.72;3.00;;;15.00;74.80;;;;;;4874993;29;20029;-78
2021/10/25 09:16:23;;;;;;;6.20;3.30;;;15.00;74.80;;;;;;4873839;29;20317;-77
2021/10/25 09:18:49;;;;;;;5.68;2.97;;;15.10;74.90;;;;;;4873295;29;20411;-80
2021/10/25 09:21:14;;;;;;;5.70;2.75;;;15.10;74.80;;;;;;4875276;29;20491;-78
2021/10/25 09:23:46;;;;;;;5.32;2.92;;;15.10;74.80;;;;;;4873132;29;20029;-79
2021/10/25 09:26:27;;;;;;;5.68;3.00;;;15.10;75.20;;;;;;4873538;29;20036;-78
2021/10/25 09:28:55;;;;;;;6.45;2.92;;;15.10;74.80;;;;;;4874272;29;20033;-80
2021/10/25 09:31:35;;;;;;;4.72;3.00;;;15.10;74.80;;;;;;4874056;29;20491;-79
2021/10/25 09:34:08;;;;;;;5.18;2.75;;;15.10;74.80;;;;;;4874242;29;20104;-79
2021/10/25 09:37:00;;;;;;;5.20;2.95;;;15.10;74.70;;;;;;4874342;29;20491;-78
2021/10/25 09:39:46;;;;;;;5.43;2.80;;;15.10;74.70;;;;;;4873464;29;20037;-78
2021/10/25 09:51:00;;;;;;;4.78;2.65;;;15.10;74.70;;;;;;4873561;29;20072;-80
2021/10/25 09:53:43;;;;;;;5.05;2.70;;;15.10;74.80;;;;;;4872327;29;20033;-79
2021/10/25 09:56:14;;;;;;;5.47;2.72;;;15.10;74.80;;;;;;4872585;29;20510;-79
2021/10/25 09:58:56;;;;;;;5.18;2.63;;;15.20;74.80;;;;;;4872484;29;20407;-80
2021/10/25 10:01:27;;;;;;;6.57;3.22;;;15.10;74.80;;;;;;4873998;29;20035;-78
2021/10/25 10:03:53;;;;;;;4.95;2.70;;;15.20;74.90;;;;;;4872644;29;20044;-78
2021/10/25 10:06:24;;;;;;;5.20;2.80;;;15.20;74.90;;;;;;4872338;29;20037;-79
2021/10/25 10:08:50;;;;;;;6.10;2.88;;;15.20;74.80;;;;;;4872296;29;20029;-79
2021/10/25 10:11:18;;;;;;;5.35;2.55;;;15.20;74.70;;;;;;4874456;29;20029;-77
2021/10/25 10:13:44;;;;;;;11.77;3.33;;;15.30;74.60;;;;;;4873317;29;20033;-79
2021/10/25 10:16:11;;;;;;;7.63;2.80;;;15.30;74.50;;;;;;4874045;29;20470;-77
2021/10/25 10:18:47;;;;;;;8.27;3.05;;;15.30;74.30;;;;;;4871927;29;20388;-78
2021/10/25 10:24:35;;;;;;;10.05;3.05;;;15.30;74.20;;;;;;4858538;29;20072;-77
2021/10/25 10:27:06;;;;;;;6.63;2.70;;;15.40;74.40;;;;;;4869220;29;20049;-80
2021/10/25 10:29:40;;;;;;;8.00;2.95;;;15.40;74.30;;;;;;4871666;29;20085;-79
2021/10/25 10:32:11;;;;;;;6.93;2.88;;;15.40;74.30;;;;;;4871950;29;20040;-76
2021/10/25 10:34:38;;;;;;;;;;;15.40;74.30;;;;;;4872156;29;20033;-77
2021/10/25 10:37:14;;;;;;;6.60;2.85;;;15.40;74.20;;;;;;4888308;29;19951;-76
2021/10/25 10:39:39;;;;;;;8.95;2.70;;;15.30;74.10;;;;;;4872052;29;20029;-78
2021/10/25 10:42:06;;;;;;;8.65;3.10;;;15.50;74.00;;;;;;4870986;29;20029;-80
2021/10/25 10:44:32;;;;;;;11.68;3.13;;;15.50;74.00;;;;;;4871823;29;20033;-77
2021/10/25 10:47:02;;;;;;;6.13;2.70;;;15.40;74.10;;;;;;4871720;29;20435;-79
2021/10/25 10:49:32;;;;;;;5.38;2.78;;;15.40;74.20;;;;;;4871330;29;20089;-78
2021/10/25 10:52:22;;;;;;;8.30;2.83;;;15.40;74.20;;;;;;4871914;29;20040;-80
2021/10/25 11:00:24;;;;;;;6.55;3.00;;;15.40;74.50;;;;;;4872838;29;20036;-81
2021/10/25 11:03:12;;;;;;;5.93;2.70;;;15.40;74.50;;;;;;4871674;29;20080;-82
2021/10/25 11:05:42;;;;;;;7.13;2.90;;;15.40;74.50;;;;;;4871811;29;20076;-77
2021/10/25 11:08:08;;;;;;;5.65;2.75;;;15.50;74.60;;;;;;4871505;29;20081;-77
2021/10/25 11:10:37;;;;;;;5.80;2.58;;;15.50;74.70;;;;;;4872479;29;20033;-78
2021/10/25 11:13:08;;;;;;;6.32;2.53;;;15.50;74.70;;;;;;4871373;29;20037;-78
2021/10/25 11:15:36;;;;;;;5.82;2.70;;;15.50;74.70;;;;;;4872731;29;20036;-79
2021/10/25 11:18:03;;;;;;;5.90;2.97;;;15.40;74.70;;;;;;4871562;29;20457;-77
2021/10/25 11:20:29;;;;;;;5.13;2.60;;;15.40;74.80;;;;;;4871964;29;20063;-77
2021/10/25 11:23:02;;;;;;;6.43;3.10;;;15.40;74.80;;;;;;4872561;29;20483;-77
2021/10/25 11:25:28;;;;;;;5.13;2.47;;;15.50;74.80;;;;;;4874352;29;20103;-77
2021/10/25 11:27:53;;;;;;;4.57;2.45;;;15.40;74.80;;;;;;4871499;29;20566;-76
2021/10/25 11:30:19;;;;;;;6.93;2.80;;;15.50;74.90;;;;;;4872433;29;20475;-80
2021/10/25 11:32:45;;;;;;;6.65;2.63;;;15.40;74.80;;;;;;4872415;29;20071;-79
2021/10/25 11:35:13;;;;;;;5.90;2.65;;;15.40;74.80;;;;;;4871100;29;20523;-81
2021/10/25 11:37:52;;;;;;;6.10;2.58;;;15.50;75.10;;;;;;4871001;29;20041;-77
2021/10/25 11:40:24;;;;;;;7.05;2.63;;;15.40;75.10;;;;;;4871362;29;20041;-78
2021/10/25 11:42:50;;;;;;;5.45;2.40;;;15.40;75.10;;;;;;4872441;29;20044;-77
2021/10/25 11:45:21;;;;;;;6.43;2.35;;;15.40;75.10;;;;;;4872416;29;20033;-78
2021/10/25 11:47:48;;;;;;;9.65;2.40;;;15.40;75.20;;;;;;4871908;29;20051;-77
2021/10/25 11:50:25;;;;;;;5.80;2.55;;;15.50;75.20;;;;;;4870817;29;20103;-78
2021/10/25 11:53:10;;;;;;;6.07;3.00;;;15.40;75.00;;;;;;4872949;29;20037;-77
2021/10/25 11:55:39;;;;;;;5.75;2.60;;;15.40;75.00;;;;;;4875658;29;20510;-81
2021/10/25 11:58:14;;;;;;;5.40;2.20;;;15.40;75.00;;;;;;4874645;29;20036;-78
2021/10/25 12:00:47;;;;;;;4.80;2.60;;;15.40;75.00;;;;;;4875258;29;20061;-77
2021/10/25 12:03:24;;;;;;;6.45;2.53;;;15.30;75.00;;;;;;4874664;29;20411;-78
2021/10/25 12:05:50;;;;;;;6.32;2.40;;;15.30;75.10;;;;;;4874424;29;20088;-78
2021/10/25 12:08:17;;;;;;;6.07;2.78;;;15.30;75.40;;;;;;4874287;29;20115;-78
2021/10/25 12:10:45;;;;;;;5.32;2.45;;;15.30;75.30;;;;;;4875222;29;20039;-77
2021/10/25 12:13:11;;;;;;;4.72;2.22;;;15.30;75.40;;;;;;4876359;29;20084;-80
2021/10/25 12:15:42;;;;;;;5.45;2.50;;;15.30;75.30;;;;;;4874642;29;20086;-78
2021/10/25 12:18:14;;;;;;;4.63;2.60;;;15.30;75.30;;;;;;4875050;29;20032;-79
2021/10/25 12:20:40;;;;;;;5.57;2.47;;;15.30;75.40;;;;;;4875543;29;20324;-80
2021/10/25 12:23:10;;;;;;;5.10;2.50;;;15.20;75.40;;;;;;4883035;29;20037;-80
2021/10/25 12:25:37;;;;;;;7.32;2.50;;;15.20;75.70;;;;;;4879552;29;20029;-79
2021/10/25 12:28:11;;;;;;;7.53;2.42;;;15.20;75.90;;;;;;4878773;29;20073;-79
2021/10/25 12:30:37;;;;;;;5.47;2.60;;;15.20;75.90;;;;;;4878980;29;20025;-80
2021/10/25 12:33:04;;;;;;;6.00;2.53;;;15.20;76.00;;;;;;4882204;29;20507;-78
2021/10/25 12:35:38;;;;;;;7.07;2.60;;;15.20;76.00;;;;;;4878977;29;20029;-78
2021/10/25 12:38:09;;;;;;;7.40;2.40;;;15.20;76.00;;;;;;4880860;29;20025;-79
2021/10/25 12:40:41;;;;;;;6.68;2.50;;;15.10;76.20;;;;;;4880628;29;20491;-79
2021/10/25 12:43:07;;;;;;;5.97;2.47;;;15.20;76.20;;;;;;4880675;29;20029;-77
2021/10/25 12:45:41;;;;;;;7.20;2.50;;;15.20;76.20;;;;;;4869717;29;20025;-79
2021/10/25 12:48:08;;;;;;;5.93;2.33;;;15.10;76.20;;;;;;4862518;29;20029;-79
2021/10/25 12:50:36;;;;;;;4.43;2.20;;;15.20;76.10;;;;;;4879377;29;20028;-79
2021/10/25 12:53:08;;;;;;;7.07;2.25;;;15.20;76.00;;;;;;4879414;29;20029;-78
2021/10/25 12:55:35;;;;;;;5.38;2.28;;;15.20;76.00;;;;;;4880632;29;20075;-79
2021/10/25 12:58:01;;;;;;;4.95;2.40;;;15.20;76.10;;;;;;4879282;29;20037;-78
2021/10/25 13:00:28;;;;;;;5.88;2.22;;;15.20;76.00;;;;;;4880026;29;20037;-79
2021/10/25 13:02:54;;;;;;;5.28;2.40;;;15.20;76.10;;;;;;4880342;29;20551;-78
2021/10/25 13:05:26;;;;;;;5.75;2.03;;;15.20;76.10;;;;;;4879451;29;20402;-79
2021/10/25 13:07:56;;;;;;;4.78;2.20;;;15.20;76.10;;;;;;4880344;29;20029;-79
2021/10/25 13:10:33;;;;;;;6.22;2.20;;;15.20;76.20;;;;;;4878660;29;20057;-78
2021/10/25 13:13:00;;;;;;;4.60;2.25;;;15.20;76.20;;;;;;4879168;29;20562;-79
2021/10/25 13:15:27;;;;;;;4.47;2.40;;;15.20;76.20;;;;;;4880385;29;20037;-78
2021/10/25 13:17:54;;;;;;;6.47;2.10;;;15.20;76.40;;;;;;4880195;29;20053;-78
2021/10/25 13:20:22;;;;;;;7.63;2.50;;;15.20;76.60;;;;;;4878474;29;20061;-78
2021/10/25 13:22:53;;;;;;;5.18;2.45;;;15.20;76.80;;;;;;4878783;29;20033;-78
2021/10/25 13:25:20;;;;;;;5.43;2.30;;;15.10;76.90;;;;;;4878833;29;20029;-78
2021/10/25 13:27:48;;;;;;;5.05;2.20;;;15.00;77.10;;;;;;4878785;29;20025;-78
2021/10/25 13:30:15;;;;;;;6.00;2.50;;;15.00;77.30;;;;;;4878292;29;20112;-82
2021/10/25 13:32:41;;;;;;;4.90;2.25;;;15.00;77.50;;;;;;4879793;29;20036;-78
2021/10/25 13:35:07;;;;;;;6.30;2.30;;;14.90;77.50;;;;;;4879787;29;20041;-78
2021/10/25 13:37:33;;;;;;;4.88;2.40;;;14.90;78.10;;;;;;4878573;29;20037;-78
2021/10/25 13:39:59;;;;;;;5.05;2.10;;;15.00;77.70;;;;;;4878151;29;20611;-78
2021/10/25 13:42:25;;;;;;;4.57;2.10;;;14.90;77.80;;;;;;4878393;29;20029;-78
2021/10/25 13:44:51;;;;;;;4.05;2.10;;;14.90;77.90;;;;;;4879388;29;20084;-78
2021/10/25 13:47:18;;;;;;;5.72;2.00;;;14.90;78.00;;;;;;4878380;29;20036;-77
2021/10/25 13:49:44;;;;;;;6.63;2.20;;;14.80;78.10;;;;;;4879581;29;20452;-78
2021/10/25 13:52:10;;;;;;;4.10;2.10;;;14.80;78.30;;;;;;4878263;29;20076;-78
2021/10/25 13:54:36;;;;;;;4.80;1.92;;;14.80;78.40;;;;;;4878149;29;20040;-77
2021/10/25 13:57:07;;;;;;;4.50;2.08;;;14.80;78.50;;;;;;4878215;29;20025;-78
2021/10/25 13:59:33;;;;;;;5.30;2.40;;;14.80;78.60;;;;;;4877840;29;20452;-78
2021/10/25 14:01:59;;;;;;;4.72;1.90;;;14.80;78.70;;;;;;4879429;29;20464;-77
2021/10/25 14:04:24;;;;;;;3.60;2.05;;;14.80;78.80;;;;;;4878195;29;20060;-78
2021/10/25 14:06:50;;;;;;;4.75;1.92;;;14.70;78.70;;;;;;4879167;29;20032;-78
2021/10/25 14:09:15;;;;;;;5.30;2.00;;;14.70;78.70;;;;;;4877744;29;20032;-79
2021/10/25 14:11:45;;;;;;;4.38;2.20;;;14.80;78.80;;;;;;4877950;29;20028;-77
2021/10/25 14:14:21;;;;;;;7.15;2.22;;;14.70;78.80;;;;;;4879059;29;20096;-77
2021/10/25 14:16:52;;;;;;;4.75;2.25;;;14.80;78.80;;;;;;4877768;29;20403;-78
2021/10/25 14:19:22;;;;;;;4.88;1.80;;;14.80;78.80;;;;;;4877511;29;20033;-77
2021/10/25 14:21:50;;;;;;;4.20;2.00;;;14.70;78.70;;;;;;4877839;29;20045;-77
2021/10/25 14:24:16;;;;;;;6.35;2.20;;;14.80;78.90;;;;;;4879393;29;20104;-77
2021/10/25 14:26:42;;;;;;;4.40;2.03;;;14.70;78.90;;;;;;4878891;29;20017;-77
2021/10/25 14:29:08;;;;;;;5.32;2.00;;;14.70;79.00;;;;;;4878556;29;20033;-79
2021/10/25 14:31:36;;;;;;;4.78;2.10;;;14.70;79.00;;;;;;4878721;29;20023;-78
2021/10/25 14:34:03;;;;;;;6.88;2.50;;;14.70;79.10;;;;;;4878823;29;20049;-79
2021/10/25 14:36:28;;;;;;;4.63;2.15;;;14.70;79.20;;;;;;4878661;29;20089;-77
2021/10/25 14:39:13;;;;;;;6.18;2.20;;;14.70;79.20;;;;;;4877184;29;20029;-78